createdAt,value
2023-10-06T00:00:32.742Z,98.28
2023-10-06T00:03:07.551Z,97.91
2023-10-06T00:05:35.993Z,97.81
2023-10-06T00:08:09.541Z,98.06
2023-10-06T00:10:37.458Z,97.75
2023-10-06T00:13:07.146Z,97.55
2023-10-06T00:15:41.128Z,97.68
2023-10-06T00:18:10.090Z,97.31
2023-10-06T00:20:50.519Z,97.41
2023-10-06T00:23:23.090Z,97.32
2023-10-06T00:25:56.501Z,97.12
2023-10-06T00:28:28.258Z,97.04
2023-10-06T00:30:58.270Z,97.01
2023-10-06T00:33:38.682Z,96.93
2023-10-06T00:36:14.407Z,97.18
2023-10-06T00:41:45.724Z,96.96
2023-10-06T00:44:13.504Z,97.11
2023-10-06T00:46:43.473Z,97.05
2023-10-06T00:49:11.179Z,97.03
2023-10-06T00:51:42.656Z,96.80
2023-10-06T00:54:10.452Z,97.01
2023-10-06T00:56:39.942Z,96.65
2023-10-06T00:59:07.847Z,96.88
2023-10-06T01:01:36.461Z,96.53
2023-10-06T01:04:10.075Z,96.71
2023-10-06T01:06:40.317Z,96.35
2023-10-06T01:09:13.497Z,96.38
2023-10-06T01:11:44.725Z,95.91
2023-10-06T01:14:15.569Z,95.54
2023-10-06T01:16:44.413Z,95.36
2023-10-06T01:19:38.738Z,94.76
2023-10-06T01:22:23.345Z,94.58
2023-10-06T01:24:51.335Z,94.94
2023-10-06T01:27:20.659Z,94.60
2023-10-06T01:29:52.997Z,94.07
2023-10-06T01:32:21.284Z,93.91
2023-10-06T01:34:51.787Z,94.13
2023-10-06T01:37:19.840Z,93.94
2023-10-06T01:39:49.826Z,93.58
2023-10-06T01:42:25.881Z,93.75
2023-10-06T01:44:53.597Z,93.25
2023-10-06T01:47:22.612Z,93.09
2023-10-06T01:49:50.299Z,93.08
2023-10-06T01:52:20.791Z,93.20
2023-10-06T01:54:49.030Z,92.93
2023-10-06T01:57:17.685Z,92.83
2023-10-06T01:59:45.408Z,92.57
2023-10-06T02:02:14.717Z,92.53
2023-10-06T02:04:47.009Z,92.03
2023-10-06T02:07:15.327Z,92.29
2023-10-06T02:09:44.561Z,92.13
2023-10-06T02:12:14.248Z,91.59
2023-10-06T02:14:42.426Z,91.60
2023-10-06T02:17:13.315Z,91.59
2023-10-06T02:19:43.154Z,90.63
2023-10-06T02:22:12.408Z,91.07
2023-10-06T02:24:40.733Z,91.20
2023-10-06T02:27:09.611Z,91.45
2023-10-06T02:29:37.170Z,91.16
2023-10-06T02:32:08.652Z,91.33
2023-10-06T02:34:37.787Z,91.10
2023-10-06T02:37:07.490Z,91.19
2023-10-06T02:39:38.134Z,91.11
2023-10-06T02:42:10.937Z,90.89
2023-10-06T02:44:40.147Z,90.71
2023-10-06T02:47:11.793Z,90.12
2023-10-06T02:49:49.865Z,90.11
2023-10-06T02:52:22.206Z,90.00
2023-10-06T02:55:06.004Z,90.02
2023-10-06T02:57:37.467Z,90.60
2023-10-06T03:00:30.138Z,90.18
2023-10-06T03:03:03.932Z,90.36
2023-10-06T03:05:35.426Z,90.18
2023-10-06T03:08:10.633Z,90.37
2023-10-06T03:10:46.278Z,90.76
2023-10-06T03:13:18.082Z,90.80
2023-10-06T03:15:48.825Z,90.43
2023-10-06T03:18:18.931Z,90.24
2023-10-06T03:21:14.129Z,90.90
2023-10-06T03:23:59.357Z,91.06
2023-10-06T03:26:32.018Z,90.70
2023-10-06T03:29:04.574Z,90.57
2023-10-06T03:31:48.465Z,90.33
2023-10-06T03:34:21.585Z,90.43
2023-10-06T03:36:58.946Z,90.07
2023-10-06T03:39:31.096Z,89.90
2023-10-06T03:42:05.198Z,89.61
2023-10-06T03:44:32.982Z,89.55
2023-10-06T03:47:01.917Z,89.62
2023-10-06T03:49:35.019Z,89.20
2023-10-06T03:52:10.708Z,89.31
2023-10-06T03:54:38.860Z,89.35
2023-10-06T03:57:06.646Z,89.37
2023-10-06T03:59:34.300Z,89.23
2023-10-06T04:02:04.458Z,89.91
2023-10-06T04:04:32.364Z,89.66
2023-10-06T04:06:59.959Z,90.16
2023-10-06T04:09:32.136Z,89.83
2023-10-06T04:12:02.739Z,89.99
2023-10-06T04:14:33.189Z,89.94
2023-10-06T04:17:02.784Z,90.29
2023-10-06T04:19:30.603Z,90.44
2023-10-06T04:21:58.542Z,90.03
2023-10-06T04:24:26.197Z,89.76
2023-10-06T04:26:53.872Z,89.64
2023-10-06T04:29:22.079Z,88.94
2023-10-06T04:31:50.319Z,88.84
2023-10-06T04:34:18.082Z,88.43
2023-10-06T04:36:45.751Z,88.86
2023-10-06T04:39:17.871Z,89.08
2023-10-06T04:41:45.585Z,89.24
2023-10-06T04:44:13.967Z,89.29
2023-10-06T04:46:41.870Z,89.04
2023-10-06T04:49:09.734Z,89.17
2023-10-06T04:51:37.630Z,89.02
2023-10-06T04:56:36.863Z,88.90
2023-10-06T04:59:04.534Z,88.36
2023-10-06T05:01:32.550Z,88.54
2023-10-06T05:04:00.530Z,88.24
2023-10-06T05:06:28.394Z,88.35
2023-10-06T05:08:56.024Z,88.23
2023-10-06T05:11:25.011Z,88.10
2023-10-06T05:13:54.910Z,88.61
2023-10-06T05:16:25.014Z,88.55
2023-10-06T05:18:53.191Z,88.19
2023-10-06T05:21:21.795Z,88.33
2023-10-06T05:23:49.957Z,88.34
2023-10-06T05:26:20.279Z,88.29
2023-10-06T05:28:48.492Z,88.78
2023-10-06T05:31:16.362Z,87.82
2023-10-06T05:33:43.988Z,88.01
2023-10-06T05:36:13.032Z,87.82
2023-10-06T05:38:41.524Z,87.95
2023-10-06T05:41:13.356Z,88.21
2023-10-06T05:43:42.478Z,88.06
2023-10-06T05:46:11.401Z,88.61
2023-10-06T05:48:40.015Z,88.75
2023-10-06T05:51:11.384Z,88.76
2023-10-06T05:53:41.656Z,89.24
2023-10-06T05:56:09.786Z,89.10
2023-10-06T05:58:42.088Z,89.11
2023-10-06T06:01:20.518Z,89.55
2023-10-06T06:03:49.039Z,89.45
2023-10-06T06:06:17.938Z,89.05
2023-10-06T06:08:49.554Z,89.88
2023-10-06T06:11:18.313Z,89.23
2023-10-06T06:13:52.728Z,89.17
2023-10-06T06:16:23.793Z,89.56
2023-10-06T06:18:52.297Z,89.76
2023-10-06T06:21:26.350Z,89.82
2023-10-06T06:23:57.358Z,89.50
2023-10-06T06:26:26.334Z,89.82
2023-10-06T06:28:54.785Z,89.18
2023-10-06T06:31:22.988Z,89.47
2023-10-06T06:33:58.344Z,89.00
2023-10-06T06:36:27.978Z,89.20
2023-10-06T06:38:55.832Z,89.02
2023-10-06T06:44:20.876Z,88.80
2023-10-06T06:46:48.658Z,89.07
2023-10-06T06:49:16.299Z,89.05
2023-10-06T06:51:43.955Z,88.84
2023-10-06T06:54:11.534Z,88.77
2023-10-06T06:56:39.513Z,88.37
2023-10-06T06:59:09.153Z,88.25
2023-10-06T07:01:40.346Z,87.88
2023-10-06T07:04:09.212Z,87.51
2023-10-06T07:06:36.816Z,87.59
2023-10-06T07:09:14.123Z,87.44
2023-10-06T07:11:45.882Z,87.62
2023-10-06T07:14:15.785Z,87.44
2023-10-06T07:16:44.449Z,87.65
2023-10-06T07:19:15.863Z,87.68
2023-10-06T07:21:43.666Z,87.74
2023-10-06T07:24:14.899Z,87.73
2023-10-06T07:26:44.893Z,87.69
2023-10-06T07:29:12.821Z,87.48
2023-10-06T07:31:40.627Z,87.83
2023-10-06T07:34:10.867Z,87.37
2023-10-06T07:36:39.081Z,87.77
2023-10-06T07:39:10.049Z,87.62
2023-10-06T07:41:38.079Z,87.10
2023-10-06T07:44:06.690Z,87.98
2023-10-06T07:46:35.218Z,87.45
2023-10-06T07:49:02.856Z,87.32
2023-10-06T07:51:30.972Z,87.18
2023-10-06T07:54:00.549Z,86.60
2023-10-06T07:56:28.196Z,86.32
2023-10-06T07:58:55.945Z,86.27
2023-10-06T08:01:23.638Z,86.61
2023-10-06T08:03:52.032Z,86.08
2023-10-06T08:06:19.753Z,86.36
2023-10-06T08:08:49.653Z,86.26
2023-10-06T08:11:18.774Z,86.05
2023-10-06T08:13:47.782Z,86.00
2023-10-06T08:16:15.425Z,86.31
2023-10-06T08:18:43.784Z,86.12
2023-10-06T08:21:12.461Z,85.89
2023-10-06T08:23:40.638Z,85.91
2023-10-06T08:26:15.213Z,85.89
2023-10-06T08:28:43.211Z,85.47
2023-10-06T08:31:17.540Z,85.04
2023-10-06T08:33:47.405Z,84.67
2023-10-06T08:36:15.465Z,84.34
2023-10-06T08:38:47.816Z,84.09
2023-10-06T08:41:17.250Z,83.73
2023-10-06T08:43:48.288Z,83.52
2023-10-06T08:46:17.170Z,83.38
2023-10-06T08:48:46.678Z,83.26
2023-10-06T08:51:16.054Z,82.83
2023-10-06T08:53:46.258Z,82.24
2023-10-06T08:56:16.677Z,81.66
2023-10-06T08:58:45.636Z,81.94
2023-10-06T09:01:14.813Z,82.21
2023-10-06T09:03:42.729Z,81.91
2023-10-06T09:06:13.110Z,81.48
2023-10-06T09:08:43.482Z,81.17
2023-10-06T09:11:11.516Z,81.15
2023-10-06T09:13:39.689Z,81.45
2023-10-06T09:16:11.620Z,81.45
2023-10-06T09:18:42.645Z,81.30
2023-10-06T09:21:20.393Z,81.04
2023-10-06T09:23:50.713Z,81.71
2023-10-06T09:26:30.902Z,81.63
2023-10-06T09:29:03.130Z,81.83
2023-10-06T09:31:45.788Z,81.84
2023-10-06T09:34:25.333Z,82.10
2023-10-06T09:36:53.824Z,82.02
2023-10-06T09:39:34.668Z,81.16
2023-10-06T09:42:02.917Z,81.30
2023-10-06T09:44:31.368Z,81.19
2023-10-06T09:47:02.439Z,81.17
2023-10-06T09:49:33.311Z,81.18
2023-10-06T09:52:04.847Z,80.75
2023-10-06T09:54:32.992Z,80.51
2023-10-06T09:57:01.450Z,79.23
2023-10-06T09:59:33.257Z,79.07
2023-10-06T10:02:06.448Z,78.70
2023-10-06T10:04:35.944Z,77.74
2023-10-06T10:07:04.318Z,77.53
2023-10-06T10:09:36.600Z,77.30
2023-10-06T10:12:15.092Z,77.09
2023-10-06T10:15:01.102Z,76.14
2023-10-06T10:18:24.132Z,75.38
2023-10-06T10:20:52.885Z,75.90
2023-10-06T10:23:21.640Z,75.31
2023-10-06T10:25:49.549Z,75.23
2023-10-06T10:28:20.846Z,75.33
2023-10-06T10:30:58.784Z,74.77
2023-10-06T10:33:34.588Z,74.55
2023-10-06T10:36:14.439Z,74.88
2023-10-06T10:38:43.354Z,75.02
2023-10-06T10:41:12.304Z,74.59
2023-10-06T10:43:42.651Z,75.15
2023-10-06T10:46:10.477Z,75.46
2023-10-06T10:48:49.097Z,75.80
2023-10-06T10:51:18.855Z,76.01
2023-10-06T10:53:49.196Z,75.91
2023-10-06T10:56:20.318Z,74.95
2023-10-06T10:58:51.047Z,75.08
2023-10-06T11:01:25.558Z,74.06
2023-10-06T11:04:14.602Z,73.34
2023-10-06T11:06:46.352Z,72.87
2023-10-06T11:09:28.218Z,71.63
2023-10-06T11:14:39.109Z,68.96
2023-10-06T11:17:06.973Z,68.39
2023-10-06T11:19:38.110Z,68.21
2023-10-06T11:22:14.909Z,67.57
2023-10-06T11:24:42.857Z,66.79
2023-10-06T11:27:23.103Z,65.54
2023-10-06T11:29:56.225Z,65.31
2023-10-06T11:32:24.982Z,65.17
2023-10-06T11:34:52.798Z,65.35
2023-10-06T11:37:25.602Z,65.20
2023-10-06T11:39:55.108Z,65.55
2023-10-06T11:42:25.877Z,65.90
2023-10-06T11:44:55.463Z,66.08
2023-10-06T11:47:29.373Z,66.70
2023-10-06T11:50:02.112Z,67.42
2023-10-06T11:52:31.289Z,67.97
2023-10-06T11:55:02.006Z,68.48
2023-10-06T11:57:49.040Z,68.40
2023-10-06T12:00:18.843Z,69.21
2023-10-06T12:02:51.610Z,69.43
2023-10-06T12:05:20.244Z,70.12
2023-10-06T12:07:54.041Z,70.40
2023-10-06T12:10:22.534Z,70.87
2023-10-06T12:12:53.751Z,71.75
2023-10-06T12:15:21.716Z,72.29
2023-10-06T12:17:51.883Z,72.51
2023-10-06T12:20:20.430Z,72.86
2023-10-06T12:22:48.385Z,73.14
2023-10-06T12:25:24.460Z,73.25
2023-10-06T12:27:52.751Z,73.31
2023-10-06T12:30:20.755Z,73.74
2023-10-06T12:32:48.631Z,73.62
2023-10-06T12:35:19.871Z,73.57
2023-10-06T12:37:48.507Z,73.54
2023-10-06T12:40:17.763Z,73.55
2023-10-06T12:42:45.828Z,74.11
2023-10-06T12:45:19.284Z,74.15
2023-10-06T12:47:51.264Z,73.94
2023-10-06T12:50:22.427Z,74.58
2023-10-06T12:52:53.632Z,74.68
2023-10-06T12:55:28.747Z,74.53
2023-10-06T12:57:56.357Z,74.76
2023-10-06T13:00:24.048Z,74.57
2023-10-06T13:02:52.049Z,74.59
2023-10-06T13:08:11.156Z,74.49
2023-10-06T13:10:38.969Z,74.55
2023-10-06T13:13:07.645Z,74.28
2023-10-06T13:15:35.347Z,74.26
2023-10-06T13:18:03.146Z,74.45
2023-10-06T13:20:31.000Z,74.78
2023-10-06T13:22:58.702Z,74.18
2023-10-06T13:25:28.762Z,74.22
2023-10-06T13:27:56.465Z,74.31
2023-10-06T13:30:25.598Z,74.17
2023-10-06T13:32:54.830Z,74.00
2023-10-06T13:35:22.872Z,74.15
2023-10-06T13:37:51.723Z,74.12
2023-10-06T13:40:19.645Z,73.87
2023-10-06T13:42:51.505Z,73.51
2023-10-06T13:45:26.652Z,73.55
2023-10-06T13:47:56.357Z,73.12
2023-10-06T13:50:28.643Z,73.54
2023-10-06T13:52:57.094Z,73.66
2023-10-06T13:55:25.772Z,73.43
2023-10-06T13:57:56.679Z,73.14
2023-10-06T14:00:33.489Z,73.14
2023-10-06T14:03:03.110Z,73.32
2023-10-06T14:05:34.447Z,73.17
2023-10-06T14:08:05.923Z,73.36
2023-10-06T14:10:37.343Z,73.14
2023-10-06T14:13:17.953Z,73.48
2023-10-06T14:16:06.774Z,73.84
2023-10-06T14:18:34.538Z,74.19
2023-10-06T14:21:07.464Z,74.42
2023-10-06T14:23:41.179Z,74.69
2023-10-06T14:26:11.419Z,75.03
2023-10-06T14:28:43.594Z,75.41
2023-10-06T14:31:21.120Z,75.73
2023-10-06T14:33:49.346Z,75.98
2023-10-06T14:36:20.147Z,75.67
2023-10-06T14:38:48.523Z,75.85
2023-10-06T14:41:20.709Z,75.94
2023-10-06T14:44:09.328Z,76.04
2023-10-06T14:46:38.878Z,76.22
2023-10-06T14:49:15.570Z,75.90
2023-10-06T14:51:45.228Z,75.97
2023-10-06T14:54:12.933Z,76.18
2023-10-06T14:56:41.222Z,76.55
2023-10-06T14:59:12.129Z,76.49
2023-10-06T15:01:41.796Z,76.78
2023-10-06T15:04:14.535Z,77.09
2023-10-06T15:06:42.692Z,77.14
2023-10-06T15:09:19.212Z,77.66
2023-10-06T15:11:48.216Z,78.34
2023-10-06T15:14:16.277Z,78.76
2023-10-06T15:16:45.276Z,79.66
2023-10-06T15:19:15.376Z,80.27
2023-10-06T15:21:45.509Z,80.94
2023-10-06T15:24:15.745Z,81.73
2023-10-06T15:26:46.338Z,82.32
2023-10-06T15:29:15.121Z,83.26
2023-10-06T15:31:43.413Z,84.18
2023-10-06T15:34:11.172Z,84.56
2023-10-06T15:36:41.403Z,85.13
2023-10-06T15:39:18.337Z,85.89
2023-10-06T15:41:47.381Z,86.46
2023-10-06T15:44:16.229Z,86.81
2023-10-06T15:46:44.487Z,87.21
2023-10-06T15:49:20.592Z,87.58
2023-10-06T15:51:49.038Z,87.76
2023-10-06T15:54:17.420Z,87.93
2023-10-06T15:56:47.514Z,88.08
2023-10-06T15:59:16.448Z,88.40
2023-10-06T16:01:46.627Z,88.92
2023-10-06T16:04:15.689Z,88.86
2023-10-06T16:06:47.164Z,89.03
2023-10-06T16:09:18.326Z,89.15
2023-10-06T16:11:47.477Z,89.49
2023-10-06T16:14:17.638Z,89.73
2023-10-06T16:16:47.611Z,90.02
2023-10-06T16:19:15.979Z,90.37
2023-10-06T16:21:44.063Z,90.34
2023-10-06T16:24:13.711Z,90.51
2023-10-06T16:26:42.226Z,90.75
2023-10-06T16:29:11.434Z,90.79
2023-10-06T16:31:39.998Z,90.94
2023-10-06T16:34:07.781Z,91.31
2023-10-06T16:36:36.319Z,91.67
2023-10-06T16:39:17.176Z,92.02
2023-10-06T16:41:45.815Z,91.87
2023-10-06T16:44:14.543Z,92.04
2023-10-06T16:46:43.138Z,92.19
2023-10-06T16:49:11.057Z,92.47
2023-10-06T16:51:40.831Z,92.75
2023-10-06T16:54:11.617Z,93.02
2023-10-06T16:56:40.039Z,93.06
2023-10-06T16:59:08.178Z,93.38
2023-10-06T17:01:36.230Z,93.55
2023-10-06T17:04:06.250Z,93.64
2023-10-06T17:06:34.864Z,93.80
2023-10-06T17:09:02.697Z,93.57
2023-10-06T17:11:30.643Z,94.06
2023-10-06T17:13:58.245Z,93.81
2023-10-06T17:16:26.888Z,93.63
2023-10-06T17:18:54.723Z,93.78
2023-10-06T17:21:22.368Z,93.77
2023-10-06T17:23:50.086Z,93.79
2023-10-06T17:26:17.772Z,94.15
2023-10-06T17:28:45.451Z,94.34
2023-10-06T17:31:19.892Z,94.75
2023-10-06T17:33:50.777Z,94.79
2023-10-06T17:36:19.866Z,94.98
2023-10-06T17:38:47.440Z,94.71
2023-10-06T17:41:17.670Z,95.02
2023-10-06T17:43:50.223Z,95.48
2023-10-06T17:46:18.799Z,95.42
2023-10-06T17:48:46.764Z,95.21
2023-10-06T17:51:20.529Z,95.36
2023-10-06T17:53:49.884Z,95.46
2023-10-06T17:56:19.221Z,95.13
2023-10-06T17:58:47.438Z,95.51
2023-10-06T18:01:17.384Z,95.01
2023-10-06T18:03:48.973Z,95.23
2023-10-06T18:06:17.145Z,95.31
2023-10-06T18:08:44.786Z,95.64
2023-10-06T18:11:12.488Z,95.93
2023-10-06T18:13:41.105Z,95.89
2023-10-06T18:16:09.705Z,96.05
2023-10-06T18:18:38.720Z,95.92
2023-10-06T18:21:06.530Z,95.98
2023-10-06T18:23:34.349Z,96.36
2023-10-06T18:26:01.975Z,96.00
2023-10-06T18:28:29.619Z,96.07
2023-10-06T18:30:57.377Z,96.17
2023-10-06T18:33:25.116Z,95.82
2023-10-06T18:35:52.789Z,95.88
2023-10-06T18:38:20.402Z,95.83
2023-10-06T18:40:57.433Z,95.51
2023-10-06T18:43:25.836Z,95.41
2023-10-06T18:45:56.920Z,95.42
2023-10-06T18:48:25.235Z,95.41
2023-10-06T18:51:02.056Z,95.96
2023-10-06T18:53:30.502Z,95.53
2023-10-06T18:55:59.049Z,96.18
2023-10-06T18:58:28.206Z,96.02
2023-10-06T19:00:56.942Z,96.11
2023-10-06T19:03:25.100Z,96.28
2023-10-06T19:06:04.629Z,96.35
2023-10-06T19:08:40.684Z,96.61
2023-10-06T19:11:14.508Z,96.94
2023-10-06T19:13:42.239Z,96.78
2023-10-06T19:16:13.586Z,96.24
2023-10-06T19:18:46.623Z,96.43
2023-10-06T19:21:15.423Z,96.94
2023-10-06T19:23:47.293Z,96.60
2023-10-06T19:26:20.297Z,96.66
2023-10-06T19:28:48.443Z,96.73
2023-10-06T19:31:17.373Z,96.78
2023-10-06T19:33:49.110Z,96.85
2023-10-06T19:36:16.865Z,96.37
2023-10-06T19:38:44.657Z,96.77
2023-10-06T19:41:14.410Z,96.36
2023-10-06T19:43:43.095Z,96.76
2023-10-06T19:46:11.738Z,96.28
2023-10-06T19:48:51.768Z,96.71
2023-10-06T19:51:19.626Z,96.75
2023-10-06T19:53:48.066Z,96.74
2023-10-06T19:56:15.826Z,96.84
2023-10-06T19:58:44.194Z,97.50
2023-10-06T20:01:12.581Z,97.30
2023-10-06T20:03:42.343Z,97.22
2023-10-06T20:06:10.061Z,97.28
2023-10-06T20:08:37.758Z,97.49
2023-10-06T20:11:05.791Z,97.42
2023-10-06T20:13:34.650Z,97.83
2023-10-06T20:16:10.931Z,97.40
2023-10-06T20:18:41.125Z,97.33
2023-10-06T20:21:13.290Z,96.93
2023-10-06T20:23:41.158Z,97.28
2023-10-06T20:26:08.774Z,97.34
2023-10-06T20:28:36.542Z,97.25
2023-10-06T20:31:05.473Z,96.97
2023-10-06T20:33:33.242Z,97.24
2023-10-06T20:36:01.566Z,97.06
2023-10-06T20:38:32.493Z,96.58
2023-10-06T20:41:00.284Z,97.03
2023-10-06T20:43:28.545Z,97.35
2023-10-06T20:45:58.182Z,96.91
2023-10-06T20:48:25.958Z,97.26
2023-10-06T20:50:53.642Z,97.17
2023-10-06T20:53:21.689Z,97.05
2023-10-06T20:55:49.450Z,96.77
2023-10-06T20:58:17.194Z,97.33
2023-10-06T21:00:44.898Z,96.85
2023-10-06T21:03:15.103Z,97.33
2023-10-06T21:05:45.122Z,97.52
2023-10-06T21:08:12.803Z,97.19
2023-10-06T21:10:40.477Z,97.43
2023-10-06T21:13:08.355Z,97.55
2023-10-06T21:15:36.069Z,97.96
2023-10-06T21:18:04.251Z,97.98
2023-10-06T21:20:31.994Z,98.26
2023-10-06T21:23:00.204Z,98.37
2023-10-06T21:25:27.910Z,98.72
2023-10-06T21:27:55.676Z,98.53
2023-10-06T21:30:23.240Z,99.25
2023-10-06T21:32:51.077Z,99.20
2023-10-06T21:35:19.329Z,98.92
2023-10-06T21:37:47.726Z,99.46
2023-10-06T21:40:15.453Z,99.78
2023-10-06T21:42:43.685Z,99.74
2023-10-06T21:45:11.754Z,100.00
2023-10-06T21:47:39.704Z,100.00
2023-10-06T21:50:07.637Z,100.00
2023-10-06T21:52:35.367Z,100.00
2023-10-06T21:55:03.541Z,100.00
2023-10-06T21:57:35.916Z,100.00
2023-10-06T22:00:18.377Z,100.00
2023-10-06T22:02:46.173Z,100.00
2023-10-06T22:05:17.373Z,100.00
2023-10-06T22:07:45.134Z,100.00
2023-10-06T22:10:16.711Z,100.00
2023-10-06T22:12:45.306Z,100.00
2023-10-06T22:15:14.741Z,100.00
2023-10-06T22:17:42.524Z,100.00
2023-10-06T22:20:10.730Z,100.00
2023-10-06T22:22:38.402Z,100.00
2023-10-06T22:25:06.373Z,100.00
2023-10-06T22:27:34.108Z,100.00
2023-10-06T22:30:01.736Z,100.00
2023-10-06T22:32:29.677Z,100.00
2023-10-06T22:34:57.509Z,100.00
2023-10-06T22:37:26.905Z,100.00
2023-10-06T22:39:54.643Z,100.00
2023-10-06T22:42:22.631Z,100.00
2023-10-06T22:44:51.408Z,100.00
2023-10-06T22:47:19.170Z,100.00
2023-10-06T22:49:47.090Z,100.00
2023-10-06T22:52:15.631Z,100.00
2023-10-06T22:54:46.436Z,100.00
2023-10-06T22:57:14.105Z,100.00
2023-10-06T22:59:41.732Z,100.00
2023-10-06T23:02:11.011Z,100.00
2023-10-06T23:04:38.641Z,100.00
2023-10-06T23:07:06.291Z,100.00
2023-10-06T23:09:36.592Z,100.00
2023-10-06T23:12:05.974Z,100.00
2023-10-06T23:14:33.683Z,100.00
2023-10-06T23:17:02.573Z,100.00
2023-10-06T23:19:35.220Z,100.00
2023-10-06T23:22:03.483Z,100.00
2023-10-06T23:24:49.302Z,100.00
2023-10-06T23:27:22.035Z,100.00
2023-10-06T23:29:51.107Z,100.00
2023-10-06T23:32:18.917Z,100.00
2023-10-06T23:34:47.056Z,100.00
2023-10-06T23:37:17.532Z,100.00
2023-10-06T23:39:47.719Z,100.00
2023-10-06T23:42:25.284Z,100.00
2023-10-06T23:44:52.993Z,100.00
2023-10-06T23:47:24.158Z,100.00
2023-10-06T23:49:56.618Z,100.00
2023-10-06T23:52:24.372Z,100.00
2023-10-06T23:54:55.008Z,100.00
2023-10-06T23:57:22.970Z,100.00
2023-10-06T23:59:50.584Z,100.00
